createdAt,value
2018-10-21T00:02:27.566Z,39.57
2018-10-21T00:04:57.217Z,39.43
2018-10-21T00:07:26.799Z,39.50
2018-10-21T00:09:56.374Z,37.90
2018-10-21T00:12:25.951Z,38.00
2018-10-21T00:14:55.579Z,39.17
2018-10-21T00:17:25.190Z,42.80
2018-10-21T00:19:54.722Z,40.77
2018-10-21T00:22:24.289Z,41.80
2018-10-21T00:24:53.983Z,40.40
2018-10-21T00:27:23.540Z,39.57
2018-10-21T00:29:53.082Z,38.33
2018-10-21T00:32:26.731Z,37.43
2018-10-21T00:34:56.332Z,38.13
2018-10-21T00:37:25.918Z,37.13
2018-10-21T00:39:55.532Z,37.80
2018-10-21T00:42:25.153Z,37.73
2018-10-21T00:44:54.815Z,36.93
2018-10-21T00:47:24.457Z,37.23
2018-10-21T00:49:54.048Z,35.93
2018-10-21T00:52:23.695Z,36.07
2018-10-21T00:54:53.450Z,38.20
2018-10-21T00:57:23.003Z,36.17
2018-10-21T00:59:52.821Z,36.53
2018-10-21T01:02:22.426Z,36.23
2018-10-21T01:04:52.055Z,36.20
2018-10-21T01:07:21.610Z,39.90
2018-10-21T01:09:51.178Z,40.50
2018-10-21T01:12:20.681Z,42.50
2018-10-21T01:14:50.277Z,40.30
2018-10-21T01:17:19.921Z,38.97
2018-10-21T01:19:49.510Z,38.80
2018-10-21T01:22:19.141Z,40.03
2018-10-21T01:24:48.642Z,39.83
2018-10-21T01:27:18.279Z,39.67
2018-10-21T01:29:48.528Z,40.90
2018-10-21T01:32:18.725Z,41.13
2018-10-21T01:34:48.323Z,42.13
2018-10-21T01:37:17.966Z,40.13
2018-10-21T01:40:52.566Z,39.90
2018-10-21T01:43:28.333Z,39.60
2018-10-21T01:45:58.230Z,40.83
2018-10-21T01:48:29.000Z,37.80
2018-10-21T01:50:58.627Z,39.60
2018-10-21T01:53:28.249Z,38.83
2018-10-21T01:55:57.904Z,39.33
2018-10-21T01:58:27.515Z,39.13
2018-10-21T02:00:57.062Z,37.57
2018-10-21T02:03:26.604Z,39.63
2018-10-21T02:05:56.190Z,38.83
2018-10-21T02:08:25.732Z,38.17
2018-10-21T02:10:55.225Z,37.97
2018-10-21T02:13:24.775Z,38.27
2018-10-21T02:15:54.279Z,38.17
2018-10-21T02:18:23.909Z,37.67
2018-10-21T02:20:53.472Z,37.07
2018-10-21T02:23:23.002Z,34.60
2018-10-21T02:25:52.585Z,36.80
2018-10-21T02:28:22.172Z,35.33
2018-10-21T02:30:51.781Z,34.60
2018-10-21T02:33:21.480Z,35.20
2018-10-21T02:35:51.058Z,34.17
2018-10-21T02:38:20.651Z,34.57
2018-10-21T02:41:30.450Z,34.77
2018-10-21T02:44:00.135Z,36.43
2018-10-21T02:46:30.145Z,35.77
2018-10-21T02:49:00.535Z,35.73
2018-10-21T02:51:30.250Z,34.17
2018-10-21T02:53:59.864Z,35.37
2018-10-21T02:56:29.560Z,34.97
2018-10-21T02:58:59.212Z,34.80
2018-10-21T03:01:28.803Z,36.13
2018-10-21T03:03:58.403Z,33.73
2018-10-21T03:06:28.024Z,35.30
2018-10-21T03:08:57.653Z,35.03
2018-10-21T03:11:27.279Z,34.87
2018-10-21T03:13:56.831Z,35.77
2018-10-21T03:16:26.422Z,34.33
2018-10-21T03:18:56.031Z,36.07
2018-10-21T03:21:25.623Z,35.57
2018-10-21T03:23:55.217Z,35.70
2018-10-21T03:26:24.838Z,35.50
2018-10-21T03:28:54.455Z,35.53
2018-10-21T03:31:24.098Z,34.23
2018-10-21T03:33:53.697Z,35.70
2018-10-21T03:36:23.184Z,36.60
2018-10-21T03:38:52.912Z,35.27
2018-10-21T03:41:22.577Z,34.43
2018-10-21T03:43:52.172Z,34.33
2018-10-21T03:46:21.814Z,35.93
2018-10-21T03:48:51.399Z,36.83
2018-10-21T03:51:21.018Z,36.37
2018-10-21T03:53:50.528Z,36.00
2018-10-21T03:56:20.112Z,36.73
2018-10-21T03:58:49.654Z,36.33
2018-10-21T04:01:19.237Z,34.53
2018-10-21T04:03:48.776Z,35.27
2018-10-21T04:06:18.299Z,33.40
2018-10-21T04:08:47.873Z,32.77
2018-10-21T04:11:17.350Z,31.97
2018-10-21T04:13:46.925Z,31.40
2018-10-21T04:16:16.548Z,32.67
2018-10-21T04:18:46.193Z,30.83
2018-10-21T04:21:15.777Z,32.50
2018-10-21T04:23:45.426Z,31.37
2018-10-21T04:26:15.089Z,32.53
2018-10-21T04:28:44.713Z,30.93
2018-10-21T04:31:14.363Z,31.43
2018-10-21T04:33:45.021Z,31.30
2018-10-21T04:36:16.405Z,29.87
2018-10-21T04:40:00.119Z,30.27
2018-10-21T04:42:29.925Z,29.40
2018-10-21T04:44:59.688Z,31.10
2018-10-21T04:47:29.738Z,29.83
2018-10-21T04:49:59.704Z,31.13
2018-10-21T04:52:30.633Z,31.23
2018-10-21T04:55:08.631Z,31.60
2018-10-21T04:57:39.790Z,31.53
2018-10-21T05:00:13.710Z,30.33
2018-10-21T05:02:43.907Z,31.43
2018-10-21T05:05:14.631Z,31.10
2018-10-21T05:07:44.437Z,31.67
2018-10-21T05:10:21.721Z,30.87
2018-10-21T05:12:51.354Z,31.53
2018-10-21T05:15:21.499Z,32.27
2018-10-21T05:17:51.238Z,30.30
2018-10-21T05:20:20.846Z,32.13
2018-10-21T05:22:50.496Z,29.90
2018-10-21T05:25:20.269Z,30.57
2018-10-21T05:27:49.836Z,31.70
2018-10-21T05:30:19.490Z,29.87
2018-10-21T05:32:49.213Z,31.07
2018-10-21T05:35:19.487Z,29.77
2018-10-21T05:37:49.225Z,31.67
2018-10-21T05:40:22.344Z,31.33
2018-10-21T05:42:52.260Z,31.47
2018-10-21T05:45:21.876Z,31.53
2018-10-21T05:47:51.558Z,31.77
2018-10-21T05:50:21.153Z,32.97
2018-10-21T05:52:50.737Z,31.00
2018-10-21T05:55:20.985Z,30.73
2018-10-21T05:57:50.705Z,30.87
2018-10-21T06:00:21.438Z,32.07
2018-10-21T06:02:51.594Z,31.73
2018-10-21T06:05:50.313Z,33.20
2018-10-21T06:08:20.030Z,31.27
2018-10-21T06:10:49.658Z,30.83
2018-10-21T06:13:19.249Z,30.50
2018-10-21T06:15:48.892Z,31.17
2018-10-21T06:18:26.242Z,29.67
2018-10-21T06:20:58.674Z,30.13
2018-10-21T06:23:28.328Z,29.90
2018-10-21T06:25:57.899Z,29.33
2018-10-21T06:28:27.523Z,29.87
2018-10-21T06:30:57.203Z,30.13
2018-10-21T06:33:26.772Z,30.90
2018-10-21T06:35:56.371Z,30.57
2018-10-21T06:38:25.961Z,30.87
2018-10-21T06:40:55.543Z,28.93
2018-10-21T06:43:25.106Z,30.47
2018-10-21T06:45:54.718Z,33.87
2018-10-21T06:48:24.246Z,31.97
2018-10-21T06:50:53.918Z,30.60
2018-10-21T06:53:23.498Z,30.53
2018-10-21T06:55:53.151Z,31.23
2018-10-21T06:58:22.704Z,29.97
2018-10-21T07:00:52.290Z,30.50
2018-10-21T07:03:21.863Z,30.97
2018-10-21T07:06:24.261Z,29.90
2018-10-21T07:08:55.117Z,30.27
2018-10-21T07:11:24.714Z,30.47
2018-10-21T07:13:54.289Z,31.50
2018-10-21T07:16:23.921Z,30.00
2018-10-21T07:18:53.763Z,30.80
2018-10-21T07:21:23.410Z,32.13
2018-10-21T07:23:53.035Z,31.97
2018-10-21T07:26:22.959Z,31.60
2018-10-21T07:28:52.555Z,32.10
2018-10-21T07:31:22.175Z,31.37
2018-10-21T07:33:51.772Z,31.90
2018-10-21T07:36:21.354Z,30.37
2018-10-21T07:38:50.947Z,32.07
2018-10-21T07:41:20.520Z,31.37
2018-10-21T07:43:50.114Z,32.13
2018-10-21T07:46:19.666Z,30.93
2018-10-21T07:48:49.231Z,31.33
2018-10-21T07:51:18.907Z,30.93
2018-10-21T07:53:48.502Z,30.57
2018-10-21T07:56:18.176Z,28.43
2018-10-21T07:58:47.784Z,30.50
2018-10-21T08:01:17.704Z,29.63
2018-10-21T08:03:47.319Z,31.80
2018-10-21T08:06:42.148Z,30.55
2018-10-21T08:09:12.496Z,28.40
2018-10-21T08:11:42.015Z,29.97
2018-10-21T08:14:11.574Z,29.85
2018-10-21T08:16:41.179Z,30.37
2018-10-21T08:19:10.822Z,28.87
2018-10-21T08:21:40.395Z,29.17
2018-10-21T08:24:10.079Z,29.57
2018-10-21T08:26:39.854Z,29.47
2018-10-21T08:29:09.457Z,29.30
2018-10-21T08:31:39.067Z,31.05
2018-10-21T08:34:08.694Z,30.13
2018-10-21T08:36:38.476Z,30.87
2018-10-21T08:39:08.746Z,31.93
2018-10-21T08:41:38.322Z,31.43
2018-10-21T08:44:07.855Z,30.83
2018-10-21T08:46:37.531Z,32.70
2018-10-21T08:49:07.094Z,31.95
2018-10-21T08:51:36.652Z,31.43
2018-10-21T08:54:06.236Z,28.00
2018-10-21T08:56:35.849Z,34.43
2018-10-21T08:59:05.551Z,32.97
2018-10-21T09:01:35.144Z,29.17
2018-10-21T09:04:05.066Z,32.67
2018-10-21T09:06:34.790Z,33.18
2018-10-21T09:09:05.410Z,32.73
2018-10-21T09:11:34.956Z,35.00
2018-10-21T09:14:05.371Z,34.73
2018-10-21T09:16:35.842Z,27.47
2018-10-21T09:19:05.831Z,29.63
2018-10-21T09:21:35.405Z,30.17
2018-10-21T09:24:05.183Z,28.63
2018-10-21T09:26:34.781Z,32.93
2018-10-21T09:29:04.375Z,34.27
2018-10-21T09:31:33.995Z,31.13
2018-10-21T09:34:03.610Z,32.50
2018-10-21T09:36:33.185Z,30.07
2018-10-21T09:39:03.027Z,29.10
2018-10-21T09:41:32.569Z,31.10
2018-10-21T09:44:02.225Z,31.47
2018-10-21T09:46:31.978Z,27.43
2018-10-21T09:49:01.604Z,31.67
2018-10-21T09:51:31.196Z,30.37
2018-10-21T09:54:00.758Z,33.70
2018-10-21T09:56:30.393Z,33.35
2018-10-21T09:58:59.991Z,29.00
2018-10-21T10:01:34.706Z,30.03
2018-10-21T10:04:04.426Z,33.50
2018-10-21T10:06:34.081Z,35.70
2018-10-21T10:09:03.893Z,30.03
2018-10-21T10:11:33.497Z,32.63
2018-10-21T10:14:03.066Z,31.77
2018-10-21T10:16:32.663Z,29.97
2018-10-21T10:19:02.289Z,30.47
2018-10-21T10:21:31.927Z,30.53
2018-10-21T10:24:01.573Z,31.82
2018-10-21T10:26:31.163Z,31.53
2018-10-21T10:29:00.755Z,33.60
2018-10-21T10:31:30.315Z,32.40
2018-10-21T10:33:59.898Z,31.97
2018-10-21T10:36:29.495Z,35.47
2018-10-21T10:38:59.083Z,34.50
2018-10-21T10:41:28.635Z,32.27
2018-10-21T10:43:58.186Z,32.63
2018-10-21T10:46:27.792Z,34.83
2018-10-21T10:48:57.360Z,34.70
2018-10-21T10:51:26.998Z,33.83
2018-10-21T10:53:56.645Z,34.17
2018-10-21T10:56:26.232Z,33.77
2018-10-21T10:58:55.783Z,32.80
2018-10-21T11:01:25.379Z,33.90
2018-10-21T11:03:56.263Z,33.07
2018-10-21T11:06:25.923Z,31.07
2018-10-21T11:08:55.732Z,35.80
2018-10-21T11:11:25.402Z,34.13
2018-10-21T11:13:54.958Z,33.60
2018-10-21T11:16:24.598Z,28.50
2018-10-21T11:18:54.350Z,29.25
2018-10-21T11:21:23.888Z,31.67
2018-10-21T11:23:53.578Z,31.00
2018-10-21T11:26:24.088Z,31.83
2018-10-21T11:28:53.645Z,33.35
2018-10-21T11:31:23.211Z,31.07
2018-10-21T11:33:53.404Z,29.65
2018-10-21T11:36:23.208Z,29.77
2018-10-21T11:38:52.795Z,28.52
2018-10-21T11:41:22.414Z,27.60
2018-10-21T11:43:51.971Z,26.57
2018-10-21T11:46:21.598Z,27.00
2018-10-21T11:48:51.222Z,29.57
2018-10-21T11:51:20.740Z,28.43
2018-10-21T11:53:50.379Z,27.07
2018-10-21T11:56:20.020Z,27.87
2018-10-21T11:58:49.611Z,27.98
2018-10-21T12:01:19.341Z,27.57
2018-10-21T12:03:49.061Z,26.37
2018-10-21T12:06:18.641Z,29.40
2018-10-21T12:08:48.426Z,24.50
2018-10-21T12:11:18.131Z,27.20
2018-10-21T12:13:47.742Z,27.37
2018-10-21T12:16:17.429Z,28.70
2018-10-21T12:18:46.947Z,26.23
2018-10-21T12:21:16.571Z,27.33
2018-10-21T12:23:46.191Z,25.77
2018-10-21T12:26:16.417Z,26.77
2018-10-21T12:28:46.992Z,26.17
2018-10-21T12:31:17.169Z,24.53
2018-10-21T12:33:46.894Z,29.37
2018-10-21T12:36:16.843Z,26.97
2018-10-21T12:38:46.432Z,30.60
2018-10-21T12:41:15.946Z,26.43
2018-10-21T12:43:57.379Z,30.63
2018-10-21T12:46:30.057Z,30.23
2018-10-21T12:49:01.975Z,22.67
2018-10-21T12:51:37.028Z,30.20
2018-10-21T12:54:11.236Z,26.77
2018-10-21T12:56:42.085Z,31.97
2018-10-21T12:59:13.684Z,29.77
2018-10-21T13:01:44.566Z,28.30
2018-10-21T13:04:14.288Z,27.63
2018-10-21T13:06:43.910Z,26.93
2018-10-21T13:09:13.502Z,25.93
2018-10-21T13:11:43.128Z,23.37
2018-10-21T13:14:13.336Z,26.53
2018-10-21T13:16:43.348Z,24.77
2018-10-21T13:19:14.035Z,37.40
2018-10-21T13:21:44.125Z,25.00
2018-10-21T13:24:13.897Z,25.17
2018-10-21T13:26:45.467Z,36.90
2018-10-21T13:29:16.226Z,24.57
2018-10-21T13:31:45.804Z,21.40
2018-10-21T13:34:16.147Z,22.43
2018-10-21T13:36:45.806Z,21.60
2018-10-21T13:39:16.327Z,24.17
2018-10-21T13:41:49.224Z,21.73
2018-10-21T13:44:19.223Z,20.77
2018-10-21T13:46:49.272Z,17.43
2018-10-21T13:49:19.259Z,23.50
2018-10-21T13:51:49.451Z,12.97
2018-10-21T13:54:19.242Z,17.60
2018-10-21T13:56:49.246Z,22.80
2018-10-21T13:59:19.272Z,32.10
2018-10-21T14:01:49.203Z,20.77
2018-10-21T14:04:19.282Z,29.23
2018-10-21T14:06:49.825Z,29.47
2018-10-21T14:09:19.676Z,15.47
2018-10-21T14:11:49.579Z,20.60
2018-10-21T14:14:19.489Z,17.17
2018-10-21T14:16:49.487Z,24.50
2018-10-21T14:19:19.362Z,17.93
2018-10-21T14:21:49.429Z,12.43
2018-10-21T14:24:19.491Z,11.40
2018-10-21T14:26:49.528Z,11.40
2018-10-21T14:29:19.351Z,13.23
2018-10-21T14:31:49.398Z,10.93
2018-10-21T14:34:19.293Z,7.13
2018-10-21T14:36:49.191Z,19.53
2018-10-21T14:39:19.312Z,15.30
2018-10-21T14:41:52.160Z,17.53
2018-10-21T14:44:21.724Z,13.13
2018-10-21T14:46:51.268Z,10.93
2018-10-21T14:49:20.950Z,15.03
2018-10-21T14:51:50.593Z,17.50
2018-10-21T14:54:20.350Z,19.57
2018-10-21T14:56:50.048Z,18.33
2018-10-21T14:59:19.692Z,13.07
2018-10-21T15:01:49.390Z,16.37
2018-10-21T15:04:19.016Z,14.17
2018-10-21T15:06:49.246Z,18.83
2018-10-21T15:09:18.982Z,17.80
2018-10-21T15:11:48.663Z,13.90
2018-10-21T15:14:18.380Z,25.03
2018-10-21T15:16:47.964Z,11.87
2018-10-21T15:19:17.660Z,49.50
2018-10-21T15:21:47.380Z,19.47
2018-10-21T15:24:17.046Z,17.20
2018-10-21T15:26:46.804Z,12.93
2018-10-21T15:29:16.503Z,12.03
2018-10-21T15:31:46.089Z,37.60
2018-10-21T15:34:16.435Z,17.83
2018-10-21T15:36:46.210Z,12.87
2018-10-21T15:39:15.892Z,11.27
2018-10-21T15:41:45.559Z,21.63
2018-10-21T15:44:15.298Z,16.63
2018-10-21T15:46:47.263Z,8.57
2018-10-21T15:49:16.862Z,6.90
2018-10-21T15:51:46.642Z,8.93
2018-10-21T15:54:16.284Z,8.40
2018-10-21T15:56:46.426Z,9.70
2018-10-21T15:59:16.459Z,5.20
2018-10-21T16:01:49.671Z,5.00
2018-10-21T16:04:21.266Z,5.97
2018-10-21T16:06:50.914Z,5.47
2018-10-21T16:09:20.491Z,7.40
2018-10-21T16:11:50.199Z,7.47
2018-10-21T16:14:19.884Z,5.67
2018-10-21T16:16:49.492Z,7.07
2018-10-21T16:19:19.857Z,5.53
2018-10-21T16:24:42.913Z,5.57
2018-10-21T16:27:12.906Z,8.50
2018-10-21T16:29:42.643Z,7.40
2018-10-21T16:32:12.251Z,10.57
2018-10-21T16:34:52.843Z,7.43
2018-10-21T16:37:22.463Z,5.43
2018-10-21T16:39:52.498Z,5.40
2018-10-21T16:42:22.042Z,7.27
2018-10-21T16:44:51.760Z,5.53
2018-10-21T16:47:21.442Z,6.10
2018-10-21T16:49:51.213Z,5.27
2018-10-21T16:52:21.879Z,8.03
2018-10-21T16:54:51.434Z,9.83
2018-10-21T16:57:21.110Z,6.73
2018-10-21T16:59:50.745Z,7.20
2018-10-21T17:02:20.898Z,20.73
2018-10-21T17:04:52.031Z,17.70
2018-10-21T17:07:22.027Z,9.60
2018-10-21T17:09:52.259Z,6.60
2018-10-21T17:12:22.416Z,9.17
2018-10-21T17:14:52.459Z,7.13
2018-10-21T17:17:22.622Z,7.30
2018-10-21T17:19:52.799Z,8.83
2018-10-21T17:22:22.812Z,6.10
2018-10-21T17:24:53.144Z,8.40
2018-10-21T17:27:23.306Z,7.30
2018-10-21T17:29:53.522Z,13.47
2018-10-21T17:32:23.657Z,11.03
2018-10-21T17:34:55.338Z,8.37
2018-10-21T17:37:26.136Z,9.67
2018-10-21T17:39:56.489Z,6.23
2018-10-21T17:42:26.167Z,9.03
2018-10-21T17:44:58.126Z,7.03
2018-10-21T17:47:27.999Z,7.03
2018-10-21T17:49:57.855Z,6.50
2018-10-21T17:52:27.609Z,5.73
2018-10-21T17:54:57.228Z,6.43
2018-10-21T17:57:26.810Z,7.80
2018-10-21T17:59:56.426Z,8.23
2018-10-21T18:02:26.049Z,11.80
2018-10-21T18:04:55.590Z,10.73
2018-10-21T18:07:25.241Z,7.00
2018-10-21T18:09:57.553Z,9.43
2018-10-21T18:12:27.269Z,7.83
2018-10-21T18:14:57.444Z,8.87
2018-10-21T18:17:28.527Z,6.10
2018-10-21T18:19:58.318Z,5.37
2018-10-21T18:22:27.941Z,9.30
2018-10-21T18:24:57.596Z,10.07
2018-10-21T18:27:27.302Z,6.07
2018-10-21T18:29:59.170Z,10.93
2018-10-21T18:32:29.201Z,6.70
2018-10-21T18:34:59.638Z,7.30
2018-10-21T18:37:32.473Z,4.63
2018-10-21T18:40:03.598Z,5.23
2018-10-21T18:42:33.571Z,6.57
2018-10-21T18:45:03.634Z,9.73
2018-10-21T18:47:33.643Z,4.73
2018-10-21T18:50:03.744Z,6.30
2018-10-21T18:52:34.025Z,9.87
2018-10-21T18:55:04.982Z,4.40
2018-10-21T18:57:36.492Z,4.63
2018-10-21T19:00:11.372Z,7.20
2018-10-21T19:02:41.587Z,5.00
2018-10-21T19:05:12.608Z,7.57
2018-10-21T19:07:41.857Z,5.33
2018-10-21T19:10:17.222Z,7.00
2018-10-21T19:12:59.571Z,7.73
2018-10-21T19:15:16.923Z,6.70
2018-10-21T19:20:27.136Z,8.47
2018-10-21T19:22:57.125Z,5.53
2018-10-21T19:25:26.823Z,8.63
2018-10-21T19:27:56.575Z,5.53
2018-10-21T19:30:26.280Z,10.50
2018-10-21T19:32:55.965Z,6.17
2018-10-21T19:35:26.277Z,5.30
2018-10-21T19:37:56.694Z,6.50
2018-10-21T19:40:27.007Z,9.43
2018-10-21T19:42:57.372Z,5.70
2018-10-21T19:45:27.704Z,5.43
2018-10-21T19:47:57.161Z,6.03
2018-10-21T19:50:27.552Z,7.73
2018-10-21T19:52:58.176Z,5.47
2018-10-21T19:55:28.667Z,7.90
2018-10-21T19:57:59.022Z,8.00
2018-10-21T20:00:29.323Z,5.60
2018-10-21T20:02:59.653Z,8.23
2018-10-21T20:05:30.025Z,8.63
2018-10-21T20:08:00.310Z,7.93
2018-10-21T20:10:30.549Z,7.07
2018-10-21T20:13:00.704Z,7.53
2018-10-21T20:15:30.970Z,8.70
2018-10-21T20:18:01.190Z,4.97
2018-10-21T20:20:31.353Z,8.03
2018-10-21T20:23:01.272Z,7.97
2018-10-21T20:25:30.993Z,4.67
2018-10-21T20:28:00.750Z,6.50
2018-10-21T20:30:30.445Z,5.60
2018-10-21T20:33:00.025Z,4.43
2018-10-21T20:35:29.666Z,5.57
2018-10-21T20:37:59.240Z,6.97
2018-10-21T20:40:28.822Z,5.90
2018-10-21T20:42:58.463Z,9.33
2018-10-21T20:45:28.097Z,6.60
2018-10-21T20:47:57.687Z,7.43
2018-10-21T20:50:27.300Z,6.07
2018-10-21T20:52:56.859Z,8.00
2018-10-21T20:55:26.454Z,9.03
2018-10-21T20:57:56.143Z,5.43
2018-10-21T21:00:25.739Z,5.97
2018-10-21T21:02:55.253Z,8.43
2018-10-21T21:05:24.978Z,7.43
2018-10-21T21:07:54.531Z,7.10
2018-10-21T21:10:24.119Z,5.10
2018-10-21T21:12:53.828Z,5.10
2018-10-21T21:15:23.388Z,5.77
2018-10-21T21:17:52.993Z,5.23
2018-10-21T21:20:22.511Z,6.47
2018-10-21T21:22:52.064Z,7.33
2018-10-21T21:25:21.674Z,7.80
2018-10-21T21:27:51.193Z,7.37
2018-10-21T21:30:20.918Z,7.83
2018-10-21T21:32:50.473Z,7.87
2018-10-21T21:35:20.032Z,7.87
2018-10-21T21:37:49.714Z,7.67
2018-10-21T21:40:19.338Z,10.10
2018-10-21T21:42:48.923Z,7.00
2018-10-21T21:45:18.498Z,6.17
2018-10-21T21:47:48.118Z,6.93
2018-10-21T21:50:17.687Z,9.20
2018-10-21T21:52:47.200Z,9.73
2018-10-21T21:55:16.735Z,8.43
2018-10-21T21:57:46.260Z,8.30
2018-10-21T22:00:15.982Z,8.57
2018-10-21T22:02:45.610Z,7.30
2018-10-21T22:05:15.142Z,8.90
2018-10-21T22:07:44.669Z,6.20
2018-10-21T22:10:14.767Z,7.63
2018-10-21T22:12:44.984Z,7.57
2018-10-21T22:15:14.621Z,7.60
2018-10-21T22:17:44.195Z,7.07
2018-10-21T22:20:14.346Z,8.07
2018-10-21T22:22:44.206Z,8.53
2018-10-21T22:25:13.890Z,6.77
2018-10-21T22:27:43.435Z,11.13
2018-10-21T22:30:13.178Z,8.10
2018-10-21T22:32:42.133Z,8.53
2018-10-21T22:35:11.765Z,8.77
2018-10-21T22:37:41.270Z,5.23
2018-10-21T22:40:11.039Z,5.50
2018-10-21T22:42:40.653Z,5.60
2018-10-21T22:45:10.891Z,7.30
2018-10-21T22:47:40.464Z,4.80
2018-10-21T22:50:11.873Z,6.47
2018-10-21T22:52:42.120Z,4.60
2018-10-21T22:55:11.676Z,4.70
2018-10-21T22:57:41.201Z,6.53
2018-10-21T23:00:11.261Z,7.37
2018-10-21T23:02:40.740Z,5.07
2018-10-21T23:05:10.430Z,7.60
2018-10-21T23:07:40.190Z,6.23
2018-10-21T23:10:09.791Z,5.90
2018-10-21T23:12:39.451Z,6.57
2018-10-21T23:15:09.087Z,7.97
2018-10-21T23:17:39.420Z,6.73
2018-10-21T23:20:09.534Z,5.97
2018-10-21T23:22:39.026Z,5.87
2018-10-21T23:25:08.607Z,9.47
2018-10-21T23:27:38.197Z,5.73
2018-10-21T23:30:08.561Z,7.13
2018-10-21T23:32:37.560Z,6.57
2018-10-21T23:35:07.584Z,6.03
2018-10-21T23:37:37.132Z,7.70
2018-10-21T23:40:07.794Z,6.63
2018-10-21T23:42:37.446Z,6.10
2018-10-21T23:45:07.200Z,4.63
2018-10-21T23:47:36.813Z,5.70
2018-10-21T23:50:07.019Z,5.73
2018-10-21T23:52:35.987Z,5.73
2018-10-21T23:55:05.630Z,7.70
2018-10-21T23:57:35.197Z,5.17
